createdAt,value
2019-05-03T00:00:40.076Z,2.70
2019-05-03T00:03:11.969Z,2.80
2019-05-03T00:05:41.766Z,3.10
2019-05-03T00:08:10.125Z,2.90
2019-05-03T00:10:38.667Z,3.10
2019-05-03T00:13:07.217Z,3.63
2019-05-03T00:15:53.292Z,3.73
2019-05-03T00:18:22.130Z,2.80
2019-05-03T00:20:52.577Z,3.90
2019-05-03T00:23:22.821Z,3.80
2019-05-03T00:25:52.334Z,3.50
2019-05-03T00:30:51.685Z,3.35
2019-05-03T00:33:19.765Z,3.60
2019-05-03T00:38:17.007Z,3.25
2019-05-03T00:40:45.248Z,3.10
2019-05-03T00:43:13.457Z,3.50
2019-05-03T00:45:42.604Z,3.80
2019-05-03T00:48:12.413Z,3.53
2019-05-03T00:50:42.458Z,3.50
2019-05-03T00:53:11.706Z,3.57
2019-05-03T00:55:41.871Z,4.07
2019-05-03T00:58:11.652Z,3.33
2019-05-03T01:00:41.742Z,3.13
2019-05-03T01:03:10.059Z,3.23
2019-05-03T01:05:38.233Z,3.75
2019-05-03T01:08:06.435Z,3.40
2019-05-03T01:10:34.649Z,3.20
2019-05-03T01:13:02.893Z,3.23
2019-05-03T01:15:32.772Z,2.95
2019-05-03T01:18:04.664Z,3.10
2019-05-03T01:20:32.827Z,3.30
2019-05-03T01:23:02.056Z,3.00
2019-05-03T01:25:35.173Z,2.80
2019-05-03T01:28:01.599Z,2.57
2019-05-03T01:30:31.948Z,2.60
2019-05-03T01:32:59.784Z,2.45
2019-05-03T01:35:27.952Z,2.80
2019-05-03T01:37:56.135Z,2.60
2019-05-03T01:42:51.941Z,3.90
2019-05-03T01:45:20.238Z,2.60
2019-05-03T01:47:50.069Z,2.70
2019-05-03T01:55:52.682Z,2.50
2019-05-03T01:58:21.767Z,2.60
2019-05-03T02:00:53.153Z,2.00
2019-05-03T02:03:25.968Z,2.17
2019-05-03T02:08:23.183Z,2.47
2019-05-03T02:10:53.348Z,2.50
2019-05-03T02:13:22.917Z,2.10
2019-05-03T02:15:52.764Z,2.33
2019-05-03T02:18:22.334Z,2.27
2019-05-03T02:20:52.555Z,2.23
2019-05-03T02:23:22.408Z,1.97
2019-05-03T02:25:58.351Z,2.20
2019-05-03T02:28:22.131Z,2.70
2019-05-03T02:30:53.254Z,2.73
2019-05-03T02:33:20.405Z,2.20
2019-05-03T02:35:48.630Z,2.27
2019-05-03T02:38:16.880Z,2.77
2019-05-03T02:40:45.081Z,2.00
2019-05-03T02:43:20.622Z,2.30
2019-05-03T02:45:56.819Z,2.40
2019-05-03T02:48:38.836Z,2.30
2019-05-03T02:51:07.048Z,2.60
2019-05-03T02:53:36.019Z,2.47
2019-05-03T02:56:15.158Z,2.50
2019-05-03T02:58:35.794Z,2.83
2019-05-03T03:03:36.077Z,2.40
2019-05-03T03:11:01.478Z,2.80
2019-05-03T03:13:30.692Z,2.70
2019-05-03T03:16:06.891Z,2.60
2019-05-03T03:18:36.778Z,2.85
2019-05-03T03:21:06.521Z,2.70
2019-05-03T03:23:36.270Z,3.00
2019-05-03T03:26:06.197Z,2.77
2019-05-03T03:28:36.542Z,2.30
2019-05-03T03:31:22.869Z,2.20
2019-05-03T03:36:50.436Z,3.13
2019-05-03T03:38:48.193Z,2.30
2019-05-03T03:41:16.444Z,2.00
2019-05-03T03:43:46.301Z,1.93
2019-05-03T03:46:15.876Z,2.30
2019-05-03T03:48:46.077Z,1.93
2019-05-03T03:51:15.522Z,2.40
2019-05-03T03:53:46.538Z,2.63
2019-05-03T03:56:16.110Z,2.53
2019-05-03T03:58:46.517Z,2.37
2019-05-03T04:01:15.662Z,2.00
2019-05-03T04:03:46.057Z,2.33
2019-05-03T04:06:15.450Z,2.17
2019-05-03T04:08:45.307Z,2.40
2019-05-03T04:11:15.674Z,2.40
2019-05-03T04:13:45.900Z,2.20
2019-05-03T04:16:26.005Z,2.60
2019-05-03T04:18:55.927Z,2.13
2019-05-03T04:21:25.584Z,2.10
2019-05-03T04:23:55.669Z,2.60
2019-05-03T04:26:29.503Z,2.20
2019-05-03T04:28:56.110Z,2.30
2019-05-03T04:31:26.176Z,2.57
2019-05-03T04:33:56.289Z,2.90
2019-05-03T04:36:26.376Z,2.10
2019-05-03T04:41:27.001Z,2.20
2019-05-03T04:43:55.532Z,2.50
2019-05-03T04:46:25.999Z,2.30
2019-05-03T04:48:56.144Z,2.70
2019-05-03T04:51:26.105Z,2.10
2019-05-03T04:53:56.044Z,2.23
2019-05-03T04:56:25.894Z,2.73
2019-05-03T04:58:55.964Z,2.63
2019-05-03T05:01:26.092Z,2.63
2019-05-03T05:03:55.894Z,2.13
2019-05-03T05:06:25.820Z,2.40
2019-05-03T05:08:55.125Z,2.27
2019-05-03T05:11:26.397Z,2.03
2019-05-03T05:13:56.014Z,2.30
2019-05-03T05:16:25.173Z,2.60
2019-05-03T05:18:55.997Z,2.67
2019-05-03T05:21:26.048Z,2.67
2019-05-03T05:24:01.404Z,2.85
2019-05-03T05:26:39.918Z,2.30
2019-05-03T05:29:15.654Z,2.77
2019-05-03T05:31:44.620Z,3.27
2019-05-03T05:34:12.950Z,3.17
2019-05-03T05:36:41.184Z,2.80
2019-05-03T05:39:09.359Z,2.90
2019-05-03T05:41:37.532Z,2.40
2019-05-03T05:44:05.767Z,2.40
2019-05-03T05:46:35.665Z,3.13
2019-05-03T05:49:05.490Z,2.60
2019-05-03T05:51:35.338Z,2.90
2019-05-03T05:54:05.234Z,2.53
2019-05-03T05:56:35.430Z,2.23
2019-05-03T05:59:08.235Z,2.93
2019-05-03T06:01:38.085Z,2.57
2019-05-03T06:04:06.315Z,2.57
2019-05-03T06:06:36.148Z,2.03
2019-05-03T06:09:15.285Z,2.30
2019-05-03T06:11:45.681Z,4.00
2019-05-03T06:14:18.463Z,2.57
2019-05-03T06:16:57.489Z,2.30
2019-05-03T06:19:44.891Z,2.57
2019-05-03T06:22:15.356Z,3.27
2019-05-03T06:25:00.262Z,2.20
2019-05-03T06:27:30.079Z,2.60
2019-05-03T06:29:59.892Z,2.60
2019-05-03T06:32:35.951Z,2.47
2019-05-03T06:35:05.207Z,2.80
2019-05-03T06:37:40.976Z,2.90
2019-05-03T06:40:09.448Z,2.47
2019-05-03T06:42:37.664Z,3.30
2019-05-03T06:45:10.213Z,3.10
2019-05-03T06:47:40.335Z,2.67
2019-05-03T06:50:07.229Z,2.73
2019-05-03T06:52:35.431Z,2.87
2019-05-03T06:55:08.620Z,2.80
2019-05-03T06:57:35.380Z,2.57
2019-05-03T07:00:18.623Z,2.50
2019-05-03T07:03:00.163Z,2.50
2019-05-03T07:05:32.940Z,3.17
2019-05-03T07:08:03.246Z,2.47
2019-05-03T07:10:41.317Z,2.73
2019-05-03T07:13:09.578Z,2.70
2019-05-03T07:15:37.791Z,2.60
2019-05-03T07:18:06.945Z,2.97
2019-05-03T07:20:45.490Z,2.97
2019-05-03T07:23:15.431Z,2.40
2019-05-03T07:25:44.772Z,2.47
2019-05-03T07:28:15.009Z,2.87
2019-05-03T07:30:45.189Z,2.33
2019-05-03T07:33:20.699Z,1.90
2019-05-03T07:35:48.912Z,2.30
2019-05-03T07:38:17.125Z,2.57
2019-05-03T07:40:45.314Z,2.70
2019-05-03T07:43:14.842Z,2.27
2019-05-03T07:45:44.666Z,2.40
2019-05-03T07:48:14.915Z,2.47
2019-05-03T07:50:44.599Z,2.30
2019-05-03T07:53:14.865Z,2.20
2019-05-03T07:56:02.560Z,2.20
2019-05-03T07:58:32.147Z,2.17
2019-05-03T08:01:08.717Z,2.50
2019-05-03T08:03:31.848Z,2.17
2019-05-03T08:06:00.060Z,2.53
2019-05-03T08:08:28.232Z,1.90
2019-05-03T08:10:56.430Z,1.70
2019-05-03T08:13:25.287Z,2.50
2019-05-03T08:15:55.770Z,2.50
2019-05-03T08:18:25.716Z,3.57
2019-05-03T08:20:55.654Z,2.63
2019-05-03T08:23:29.652Z,2.00
2019-05-03T08:25:55.655Z,1.90
2019-05-03T08:28:24.600Z,2.10
2019-05-03T08:31:14.997Z,2.57
2019-05-03T08:34:01.067Z,2.33
2019-05-03T08:36:30.909Z,1.90
2019-05-03T08:38:59.084Z,2.23
2019-05-03T08:41:28.929Z,2.20
2019-05-03T08:43:58.109Z,2.70
2019-05-03T08:46:26.305Z,2.20
2019-05-03T08:48:54.911Z,2.30
2019-05-03T08:51:24.976Z,2.27
2019-05-03T08:53:53.094Z,2.50
2019-05-03T08:56:21.276Z,2.00
2019-05-03T08:58:49.480Z,1.97
2019-05-03T09:01:17.790Z,2.30
2019-05-03T09:03:46.037Z,2.20
2019-05-03T09:06:15.484Z,1.93
2019-05-03T09:08:45.785Z,1.70
2019-05-03T09:11:15.645Z,2.30
2019-05-03T09:13:49.169Z,2.30
2019-05-03T09:16:18.371Z,2.20
2019-05-03T09:18:46.711Z,1.87
2019-05-03T09:21:14.950Z,2.10
2019-05-03T09:23:45.051Z,2.13
2019-05-03T09:26:14.845Z,2.10
2019-05-03T09:28:44.805Z,2.47
2019-05-03T09:31:12.836Z,2.30
2019-05-03T09:33:41.037Z,2.10
2019-05-03T09:36:09.241Z,2.07
2019-05-03T09:38:40.284Z,1.77
2019-05-03T09:41:07.365Z,2.20
2019-05-03T09:43:35.777Z,2.20
2019-05-03T09:46:05.143Z,1.77
2019-05-03T09:48:34.782Z,2.17
2019-05-03T09:51:05.045Z,1.80
2019-05-03T09:53:35.174Z,1.97
2019-05-03T09:56:05.079Z,2.00
2019-05-03T09:58:37.761Z,2.43
2019-05-03T10:01:06.090Z,2.40
2019-05-03T10:03:33.130Z,1.80
2019-05-03T10:06:02.231Z,2.30
2019-05-03T10:08:30.450Z,1.80
2019-05-03T10:11:11.487Z,2.13
2019-05-03T10:13:41.842Z,1.90
2019-05-03T10:16:09.771Z,2.03
2019-05-03T10:18:37.965Z,1.90
2019-05-03T10:21:06.176Z,2.10
2019-05-03T10:23:36.011Z,2.00
2019-05-03T10:26:05.070Z,2.20
2019-05-03T10:28:33.553Z,2.00
2019-05-03T10:31:04.951Z,2.03
2019-05-03T10:33:36.117Z,1.80
2019-05-03T10:36:05.488Z,1.90
2019-05-03T10:38:33.913Z,1.80
2019-05-03T10:41:02.092Z,2.30
2019-05-03T10:43:30.573Z,1.97
2019-05-03T10:45:58.856Z,2.10
2019-05-03T10:48:27.036Z,1.87
2019-05-03T10:50:56.419Z,1.83
2019-05-03T10:53:26.530Z,1.90
2019-05-03T10:55:59.050Z,2.10
2019-05-03T10:58:27.228Z,2.37
2019-05-03T11:00:56.678Z,1.80
2019-05-03T11:03:25.261Z,2.03
2019-05-03T11:05:54.847Z,2.53
2019-05-03T11:08:23.211Z,1.87
2019-05-03T11:10:51.387Z,1.93
2019-05-03T11:13:19.647Z,2.20
2019-05-03T11:15:47.888Z,2.20
2019-05-03T11:18:16.108Z,2.37
2019-05-03T11:20:46.293Z,2.30
2019-05-03T11:23:14.717Z,1.90
2019-05-03T11:25:45.033Z,1.90
2019-05-03T11:28:20.356Z,2.50
2019-05-03T11:30:55.643Z,2.23
2019-05-03T11:33:28.811Z,2.10
2019-05-03T11:35:58.648Z,1.90
2019-05-03T11:38:32.285Z,2.00
2019-05-03T11:41:00.466Z,1.93
2019-05-03T11:43:28.677Z,1.90
2019-05-03T11:45:56.844Z,1.90
2019-05-03T11:48:25.373Z,2.07
2019-05-03T11:50:54.627Z,2.33
2019-05-03T11:53:25.019Z,2.47
2019-05-03T11:55:54.943Z,2.00
2019-05-03T11:58:22.944Z,2.10
2019-05-03T12:01:14.890Z,2.10
2019-05-03T12:03:38.925Z,2.07
2019-05-03T12:06:07.125Z,1.80
2019-05-03T12:08:35.296Z,2.00
2019-05-03T12:11:05.618Z,2.00
2019-05-03T12:13:33.447Z,2.00
2019-05-03T12:16:01.902Z,1.73
2019-05-03T12:18:44.828Z,2.03
2019-05-03T12:21:01.772Z,2.03
2019-05-03T12:23:32.030Z,2.07
2019-05-03T12:26:00.939Z,1.73
2019-05-03T12:28:29.487Z,1.90
2019-05-03T12:30:57.668Z,1.93
2019-05-03T12:33:26.183Z,2.00
2019-05-03T12:35:55.210Z,1.87
2019-05-03T12:38:25.558Z,2.50
2019-05-03T12:40:54.622Z,1.90
2019-05-03T12:43:22.924Z,1.70
2019-05-03T12:45:51.194Z,1.80
2019-05-03T12:48:19.398Z,2.07
2019-05-03T12:50:47.870Z,2.10
2019-05-03T12:53:16.428Z,1.90
2019-05-03T12:55:45.601Z,2.33
2019-05-03T12:58:15.063Z,2.60
2019-05-03T13:00:48.355Z,2.13
2019-05-03T13:03:25.755Z,2.10
2019-05-03T13:05:55.573Z,1.87
2019-05-03T13:08:37.927Z,2.57
2019-05-03T13:11:06.528Z,2.57
2019-05-03T13:13:35.918Z,2.00
2019-05-03T13:16:04.777Z,2.10
2019-05-03T13:18:35.129Z,2.23
2019-05-03T13:21:05.392Z,2.10
2019-05-03T13:23:35.306Z,2.20
2019-05-03T13:26:05.258Z,2.03
2019-05-03T13:28:32.763Z,2.13
2019-05-03T13:31:01.011Z,2.13
2019-05-03T13:33:29.189Z,1.90
2019-05-03T13:35:57.409Z,2.23
2019-05-03T13:38:25.592Z,1.73
2019-05-03T13:40:54.351Z,2.20
2019-05-03T13:43:22.687Z,2.03
2019-05-03T13:45:50.880Z,2.17
2019-05-03T13:48:21.044Z,2.23
2019-05-03T13:50:48.959Z,2.23
2019-05-03T13:53:17.239Z,2.33
2019-05-03T13:55:45.414Z,2.00
2019-05-03T13:58:14.715Z,2.03
2019-05-03T14:00:45.167Z,2.40
2019-05-03T14:03:15.049Z,2.20
2019-05-03T14:05:44.614Z,2.30
2019-05-03T14:08:15.432Z,2.07
2019-05-03T14:10:45.169Z,2.10
2019-05-03T14:13:12.526Z,2.03
2019-05-03T14:15:40.770Z,1.90
2019-05-03T14:18:08.937Z,2.10
2019-05-03T14:20:47.708Z,2.30
2019-05-03T14:23:15.909Z,1.97
2019-05-03T14:25:44.673Z,2.13
2019-05-03T14:28:14.543Z,2.10
2019-05-03T14:30:45.414Z,2.00
2019-05-03T14:33:13.769Z,2.17
2019-05-03T14:35:41.940Z,2.40
2019-05-03T14:38:10.116Z,2.37
2019-05-03T14:40:38.287Z,2.47
2019-05-03T14:43:06.476Z,2.13
2019-05-03T14:45:35.075Z,2.13
2019-05-03T14:48:05.943Z,2.50
2019-05-03T14:50:35.087Z,2.23
2019-05-03T14:53:05.470Z,1.90
2019-05-03T14:55:35.040Z,2.30
2019-05-03T14:58:17.521Z,2.50
2019-05-03T15:00:50.537Z,2.30
2019-05-03T15:03:20.355Z,2.23
2019-05-03T15:05:48.596Z,2.07
2019-05-03T15:08:16.865Z,2.67
2019-05-03T15:10:45.776Z,2.30
2019-05-03T15:13:15.907Z,2.30
2019-05-03T15:15:45.203Z,2.47
2019-05-03T15:18:14.888Z,2.20
2019-05-03T15:20:45.194Z,2.50
2019-05-03T15:23:14.781Z,2.23
2019-05-03T15:25:45.085Z,2.47
2019-05-03T15:28:12.954Z,2.70
2019-05-03T15:30:41.233Z,2.20
2019-05-03T15:33:09.450Z,2.57
2019-05-03T15:35:37.657Z,2.37
2019-05-03T15:38:05.829Z,2.20
2019-05-03T15:40:35.785Z,2.33
2019-05-03T15:43:08.142Z,2.67
2019-05-03T15:45:37.960Z,3.20
2019-05-03T15:48:07.783Z,2.80
2019-05-03T15:50:36.936Z,2.33
2019-05-03T15:53:05.118Z,2.50
2019-05-03T15:55:33.324Z,2.97
2019-05-03T15:58:01.559Z,2.53
2019-05-03T16:00:29.724Z,2.47
2019-05-03T16:03:07.474Z,2.60
2019-05-03T16:05:27.832Z,2.27
2019-05-03T16:07:56.025Z,2.23
2019-05-03T16:10:24.964Z,2.30
2019-05-03T16:12:54.573Z,2.63
2019-05-03T16:15:24.580Z,2.30
2019-05-03T16:17:54.583Z,2.30
2019-05-03T16:20:24.970Z,2.40
2019-05-03T16:22:54.404Z,2.30
2019-05-03T16:25:24.914Z,2.40
2019-05-03T16:28:10.756Z,2.63
2019-05-03T16:30:40.644Z,2.60
2019-05-03T16:33:08.816Z,2.30
2019-05-03T16:35:37.852Z,2.20
2019-05-03T16:38:06.256Z,2.13
2019-05-03T16:40:34.669Z,2.53
2019-05-03T16:43:02.873Z,2.20
2019-05-03T16:45:34.916Z,3.20
2019-05-03T16:48:04.489Z,2.60
2019-05-03T16:50:34.417Z,2.07
2019-05-03T16:53:02.865Z,2.50
2019-05-03T16:55:31.044Z,2.50
2019-05-03T16:57:59.277Z,2.53
2019-05-03T17:00:27.440Z,2.60
2019-05-03T17:02:55.603Z,2.60
2019-05-03T17:05:41.830Z,2.43
2019-05-03T17:08:14.779Z,2.10
2019-05-03T17:10:47.441Z,2.33
2019-05-03T17:13:15.673Z,2.50
2019-05-03T17:15:44.798Z,2.90
2019-05-03T17:18:14.693Z,2.27
2019-05-03T17:20:45.334Z,2.30
2019-05-03T17:23:15.473Z,2.50
2019-05-03T17:25:44.789Z,2.73
2019-05-03T17:28:12.996Z,2.50
2019-05-03T17:30:44.450Z,2.60
2019-05-03T17:33:12.544Z,2.70
2019-05-03T17:35:40.791Z,2.70
2019-05-03T17:38:09.004Z,3.00
2019-05-03T17:40:44.819Z,2.27
2019-05-03T17:43:20.639Z,3.13
2019-05-03T17:45:50.521Z,2.87
2019-05-03T17:48:18.733Z,2.43
2019-05-03T17:50:46.940Z,2.57
2019-05-03T17:53:28.883Z,2.97
2019-05-03T17:56:05.019Z,2.90
2019-05-03T17:58:37.558Z,2.37
2019-05-03T18:01:23.861Z,3.23
2019-05-03T18:04:03.959Z,3.00
2019-05-03T18:06:25.499Z,2.70
2019-05-03T18:09:10.649Z,3.07
2019-05-03T18:11:40.468Z,2.87
2019-05-03T18:14:08.674Z,2.90
2019-05-03T18:16:36.877Z,2.83
2019-05-03T18:19:07.060Z,2.90
2019-05-03T18:21:35.276Z,2.70
2019-05-03T18:24:04.928Z,2.77
2019-05-03T18:26:35.396Z,3.20
2019-05-03T18:29:05.777Z,2.67
2019-05-03T18:31:34.138Z,3.17
2019-05-03T18:34:02.349Z,3.13
2019-05-03T18:36:32.421Z,2.90
2019-05-03T18:39:01.327Z,3.43
2019-05-03T18:41:29.500Z,2.90
2019-05-03T18:44:14.859Z,3.40
2019-05-03T18:46:44.736Z,3.40
2019-05-03T18:49:14.612Z,2.80
2019-05-03T18:51:44.618Z,3.10
2019-05-03T18:54:13.005Z,3.30
2019-05-03T18:56:41.233Z,3.33
2019-05-03T18:59:09.400Z,3.30
2019-05-03T19:01:37.576Z,3.33
2019-05-03T19:04:08.372Z,3.37
2019-05-03T19:06:36.560Z,3.57
2019-05-03T19:09:18.800Z,3.37
2019-05-03T19:11:48.638Z,3.83
2019-05-03T19:14:21.219Z,4.10
2019-05-03T19:16:51.023Z,3.70
2019-05-03T19:19:21.812Z,4.40
2019-05-03T19:21:50.013Z,3.70
2019-05-03T19:24:18.195Z,3.57
2019-05-03T19:26:47.377Z,3.33
2019-05-03T19:29:15.543Z,3.67
2019-05-03T19:31:44.935Z,3.93
2019-05-03T19:34:15.292Z,3.23
2019-05-03T19:36:45.412Z,3.00
2019-05-03T19:39:14.375Z,3.63
2019-05-03T19:41:44.698Z,4.07
2019-05-03T19:44:12.640Z,3.70
2019-05-03T19:46:40.845Z,3.50
2019-05-03T19:49:09.023Z,3.73
2019-05-03T19:51:37.196Z,4.00
2019-05-03T19:54:05.519Z,3.30
2019-05-03T19:56:33.719Z,3.10
2019-05-03T19:59:04.643Z,3.50
2019-05-03T20:01:42.779Z,3.30
2019-05-03T20:04:27.943Z,3.60
2019-05-03T20:06:57.768Z,3.57
2019-05-03T20:09:27.153Z,3.73
2019-05-03T20:11:55.379Z,3.73
2019-05-03T20:14:25.586Z,3.70
2019-05-03T20:16:54.988Z,3.20
2019-05-03T20:19:25.463Z,3.43
2019-05-03T20:21:54.293Z,4.00
2019-05-03T20:24:25.224Z,4.03
2019-05-03T20:26:52.987Z,4.20
2019-05-03T20:29:21.186Z,4.50
2019-05-03T20:31:49.399Z,3.80
2019-05-03T20:34:17.580Z,4.00
2019-05-03T20:36:45.862Z,4.60
2019-05-03T20:39:14.828Z,3.67
2019-05-03T20:41:45.181Z,4.20
2019-05-03T20:44:29.649Z,4.37
2019-05-03T20:46:59.461Z,3.70
2019-05-03T20:49:27.673Z,3.80
2019-05-03T20:51:55.943Z,3.60
2019-05-03T20:54:24.149Z,3.40
2019-05-03T20:56:52.327Z,3.90
2019-05-03T20:59:20.516Z,3.67
2019-05-03T21:01:48.725Z,3.73
2019-05-03T21:04:16.928Z,3.60
2019-05-03T21:06:45.650Z,3.60
2019-05-03T21:09:14.863Z,3.53
2019-05-03T21:11:44.819Z,4.03
2019-05-03T21:14:15.294Z,3.80
2019-05-03T21:16:51.666Z,3.90
2019-05-03T21:19:24.808Z,3.73
2019-05-03T21:22:09.720Z,3.63
2019-05-03T21:24:51.843Z,3.50
2019-05-03T21:27:20.020Z,3.80
2019-05-03T21:29:51.904Z,4.40
2019-05-03T21:32:21.117Z,3.53
2019-05-03T21:34:55.513Z,4.07
2019-05-03T21:37:24.470Z,3.70
2019-05-03T21:39:54.640Z,3.60
2019-05-03T21:42:22.801Z,3.87
2019-05-03T21:44:50.971Z,4.05
2019-05-03T21:47:20.825Z,4.33
2019-05-03T21:49:50.665Z,4.20
2019-05-03T21:52:18.839Z,4.80
2019-05-03T21:54:47.016Z,4.17
2019-05-03T21:57:16.637Z,4.83
2019-05-03T21:59:45.040Z,3.70
2019-05-03T22:02:15.275Z,3.83
2019-05-03T22:04:44.404Z,3.93
2019-05-03T22:07:13.729Z,4.20
2019-05-03T22:09:41.934Z,4.27
2019-05-03T22:12:10.149Z,3.50
2019-05-03T22:14:46.120Z,3.47
2019-05-03T22:17:15.982Z,3.80
2019-05-03T22:19:45.426Z,4.27
2019-05-03T22:22:34.169Z,4.30
2019-05-03T22:25:06.484Z,3.63
2019-05-03T22:27:42.641Z,4.00
2019-05-03T22:30:11.321Z,3.90
2019-05-03T22:32:39.621Z,3.83
2019-05-03T22:35:07.859Z,3.90
2019-05-03T22:37:36.148Z,4.20
2019-05-03T22:40:05.445Z,4.30
2019-05-03T22:42:34.599Z,4.57
2019-05-03T22:45:04.657Z,4.00
2019-05-03T22:47:32.974Z,4.10
2019-05-03T22:50:01.176Z,4.30
2019-05-03T22:52:31.789Z,4.57
2019-05-03T22:54:59.973Z,5.40
2019-05-03T22:57:28.172Z,4.70
2019-05-03T22:59:56.389Z,4.83
2019-05-03T23:02:25.027Z,5.40
2019-05-03T23:04:55.253Z,4.50
2019-05-03T23:07:24.851Z,4.90
2019-05-03T23:09:52.984Z,5.03
2019-05-03T23:12:21.155Z,5.30
2019-05-03T23:14:50.265Z,4.60
2019-05-03T23:17:19.108Z,4.87
2019-05-03T23:19:48.957Z,5.07
2019-05-03T23:22:18.777Z,5.53
2019-05-03T23:24:46.977Z,5.40
2019-05-03T23:27:15.185Z,5.27
2019-05-03T23:29:45.275Z,4.93
2019-05-03T23:32:15.032Z,5.53
2019-05-03T23:34:43.177Z,5.30
2019-05-03T23:37:11.397Z,5.30
2019-05-03T23:39:39.579Z,4.87
2019-05-03T23:42:07.770Z,4.77
2019-05-03T23:44:35.937Z,5.00
2019-05-03T23:47:08.637Z,5.77
2019-05-03T23:49:36.804Z,4.40
2019-05-03T23:52:06.670Z,4.53
2019-05-03T23:54:34.844Z,5.13
2019-05-03T23:57:03.036Z,4.40
2019-05-03T23:59:31.229Z,4.70
